Ashton, ID

10:16 PM MDT on September 01, 2014 (GMT -0600)
Parkinson Seed Farm, Saint Anthony | Change Station
CLOSE
Current Station
Personal Weather Station
Location: Ashton, ID
Elevation: 5358 ft
Nearby Weather Stations

Elev 5358 ft 43.94 °N, 111.48 °W | Updated 31 seconds ago

Clear
Clear
51.8 °F
Feels Like 51.8 °F
N
0.9
Wind Variable Wind from NE
Gusts 2.0 mph

Today
High -- | Low -- °F
--% Chance of Precip.
Yesterday
High -- | Low -- °F
Precip. -- in
6:48 AM 8:01 PM
Waxing Crescent, 47% visible
Pressure 30.01 in
Visibility 10.0 miles
Clouds Clear
Dew Point 41 °F
Humidity 66%
Rainfall 0.00 in
Snow Depth Not available.
UV 0 out of 12
Pollen 8.00 out of 12
Air Quality Not available.
Flu Activity Not available.
METAR KDIJ 020356Z AUTO 10007KT 10SM CLR 09/03 A3017 RMK AO2 T00880033 SLP161

More Conditions Fewer Conditions

Pressure 30.01 in
Visibility 10.0 miles
Clouds Clear
Dew Point 41 °F
Humidity 66%
Rainfall 0.00 in
Snow Depth Not available.
UV 0 out of 12
Pollen 8.00 out of 12
Air Quality Not available.
Flu Activity Not available.
METAR KDIJ 020356Z AUTO 10007KT 10SM CLR 09/03 A3017 RMK AO2 T00880033 SLP161

More Conditions Fewer Conditions

10-Day Weather Forecast

Almanac

Astronomy

Sep. 01, 2014 Rise Set
Actual Time 6:48 AM MDT 8:01 PM MDT
Civil Twilight 6:19 AM MDT 8:30 PM MDT
Nautical Twilight 5:43 AM MDT 9:06 PM MDT
Astronomical Twilight 5:05 AM MDT 9:44 PM MDT
Moon 1:52 PM MDT (9/1) 11:51 PM MDT (9/1)
Length of Visible Light 14h 11m
Length of Day
13h 12m
Tomorrow will be 2m 54s shorter.
Waxing Crescent, 47% of the Moon is Illuminated
Sep 2
Waxing Crescent
Sep 2
First Quarter
Sep 8
Full
Sep 15
Last Quarter
Sep 24
New

Today's Extremes

State Highs State Lows

Community

WunderPhotos

Upload Photos

1,749,560 photos uploaded!

WunderBlogs® & News

Nearby

Snow Depth

Station Depth Elevation
Island Park 0 in 6290 ft
White Elephant 0 in 7710 ft
Crab Creek 0 in 6860 ft
Sheep Mountain 0 in 6570 ft
Somsen Ranch 0 in 6800 ft

Earthquake Activity

City Distance Mag. Time & Date
Driggs, Idaho 30 miles 3.8 2:09 PM MDT
2014-08-30
Minimum magnitude displayed is 2.5.

Coastal Water Temperatures

Place Temperature
No Stations Reporting

Nearby Weather Stations